Time;durP1;ratioP1;P1;durP2;ratioP2;P2;SDS_P1;SDS_P2;PMS_P1;PMS_P2;Temp;Humidity;BMP_temperature;BMP_pressure;BME280_temperature;BME280_humidity;BME280_pressure;Samples;Min_cycle;Max_cycle;Signal;HPM_P1;HPM_P2
2023/08/17 00:00:37;;;;;;;2.28;0.80;;;;;;;;;;5044271;28;20017;-76
2023/08/17 00:03:03;;;;;;;4.30;1.08;;;;;;;;;;5039097;28;20036;-76
2023/08/17 00:05:32;;;;;;;2.72;1.10;;;;;;;;;;5037930;28;20025;-77
2023/08/17 00:07:58;;;;;;;2.33;1.08;;;;;;;;;;5039415;28;20053;-77
2023/08/17 00:10:24;;;;;;;1.23;0.80;;;;;;;;;;5039172;28;20014;-77
2023/08/17 00:12:50;;;;;;;1.80;0.93;;;;;;;;;;5039163;28;20056;-76
2023/08/17 00:15:16;;;;;;;2.03;0.93;;;;;;;;;;5039036;28;20025;-77
2023/08/17 00:17:42;;;;;;;1.83;0.90;;;;;;;;;;5039125;28;20037;-77
2023/08/17 00:20:09;;;;;;;2.03;1.02;;;;;;;;;;5038708;28;20100;-75
2023/08/17 00:22:35;;;;;;;1.48;0.93;;;;;;;;;;5037593;28;20402;-75
2023/08/17 00:25:04;;;;;;;3.65;1.08;;;;;;;;;;5037546;28;20021;-76
2023/08/17 00:27:30;;;;;;;2.13;1.20;;;;;;;;;;5038901;28;20040;-75
2023/08/17 00:29:56;;;;;;;3.75;1.13;;;;;;;;;;5038423;28;20021;-76
2023/08/17 00:32:22;;;;;;;2.45;1.10;;;;;;;;;;5038534;28;20053;-75
2023/08/17 00:34:48;;;;;;;2.03;1.02;;;;;;;;;;5038715;28;20081;-75
2023/08/17 00:37:14;;;;;;;2.15;0.82;;;;;;;;;;5037240;28;20494;-77
2023/08/17 00:39:40;;;;;;;1.98;0.80;;;;;;;;;;5036687;28;20026;-77
2023/08/17 00:42:07;;;;;;;2.15;0.90;;;;;;;;;;5037199;28;20029;-77
2023/08/17 00:44:33;;;;;;;1.85;1.00;;;;;;;;;;5038175;28;20018;-77
2023/08/17 00:47:00;;;;;;;3.42;1.10;;;;;;;;;;5038389;28;20394;-77
2023/08/17 00:49:26;;;;;;;3.20;1.10;;;;;;;;;;5039982;28;20017;-77
2023/08/17 00:51:52;;;;;;;1.65;0.93;;;;;;;;;;5036587;28;20025;-78
2023/08/17 00:54:24;;;;;;;2.33;1.00;;;;;;;;;;5038197;28;20501;-77
2023/08/17 00:56:50;;;;;;;3.45;1.20;;;;;;;;;;5038019;28;20040;-77
2023/08/17 00:59:16;;;;;;;2.40;0.90;;;;;;;;;;5038363;28;20500;-76
2023/08/17 01:01:42;;;;;;;1.67;1.10;;;;;;;;;;5042024;28;20112;-76
2023/08/17 01:04:08;;;;;;;2.65;1.00;;;;;;;;;;5036512;28;20048;-77
2023/08/17 01:06:34;;;;;;;2.55;1.00;;;;;;;;;;5036956;28;20029;-77
2023/08/17 01:09:00;;;;;;;3.00;1.00;;;;;;;;;;5038001;28;20147;-76
2023/08/17 01:11:26;;;;;;;2.28;1.00;;;;;;;;;;5037912;28;20026;-77
2023/08/17 01:14:08;;;;;;;2.42;1.27;;;;;;;;;;5037810;28;20025;-77
2023/08/17 01:16:39;;;;;;;5.95;1.38;;;;;;;;;;5036313;28;20108;-77
2023/08/17 01:19:08;;;;;;;1.58;1.05;;;;;;;;;;5037971;28;20021;-75
2023/08/17 01:21:42;;;;;;;1.73;0.88;;;;;;;;;;5037778;28;20026;-75
2023/08/17 01:24:09;;;;;;;1.92;0.90;;;;;;;;;;5036284;28;20075;-77
2023/08/17 01:26:34;;;;;;;3.10;1.00;;;;;;;;;;5037436;28;20076;-76
2023/08/17 01:29:01;;;;;;;2.08;0.90;;;;;;;;;;5037541;28;20033;-76
2023/08/17 01:31:37;;;;;;;1.00;0.80;;;;;;;;;;5037475;28;20021;-77
2023/08/17 01:34:13;;;;;;;2.28;1.00;;;;;;;;;;5045257;28;20025;-76
2023/08/17 01:36:44;;;;;;;3.05;1.20;;;;;;;;;;5057415;28;20397;-78
2023/08/17 01:39:11;;;;;;;2.15;1.00;;;;;;;;;;5045703;28;20076;-78
2023/08/17 01:41:38;;;;;;;2.15;0.80;;;;;;;;;;5037114;28;20021;-77
2023/08/17 01:44:05;;;;;;;4.65;1.30;;;;;;;;;;5037393;28;20032;-77
2023/08/17 01:46:34;;;;;;;1.83;0.90;;;;;;;;;;5036044;28;20075;-77
2023/08/17 01:49:01;;;;;;;1.98;1.10;;;;;;;;;;5037334;28;20026;-76
2023/08/17 01:51:27;;;;;;;3.25;1.10;;;;;;;;;;5037106;28;20029;-76
2023/08/17 01:53:53;;;;;;;3.20;1.10;;;;;;;;;;5037023;28;20059;-77
2023/08/17 01:56:19;;;;;;;1.73;1.00;;;;;;;;;;5035532;28;20033;-77
2023/08/17 01:58:45;;;;;;;1.75;1.00;;;;;;;;;;5037346;28;20044;-76
2023/08/17 02:01:11;;;;;;;3.35;1.38;;;;;;;;;;5040795;28;20025;-76
2023/08/17 02:03:37;;;;;;;1.08;0.80;;;;;;;;;;5037273;28;20035;-76
2023/08/17 02:06:03;;;;;;;1.90;1.10;;;;;;;;;;5036997;28;20036;-76
2023/08/17 02:08:30;;;;;;;2.00;1.10;;;;;;;;;;5037301;28;20453;-76
2023/08/17 02:10:56;;;;;;;1.77;1.15;;;;;;;;;;5036854;28;20528;-77
2023/08/17 02:13:22;;;;;;;2.28;0.93;;;;;;;;;;5037140;28;20022;-77
2023/08/17 02:15:48;;;;;;;1.60;0.95;;;;;;;;;;5036651;28;20095;-77
2023/08/17 02:18:14;;;;;;;2.97;1.23;;;;;;;;;;5037132;28;20017;-77
2023/08/17 02:20:40;;;;;;;1.55;1.00;;;;;;;;;;5036872;28;20033;-77
2023/08/17 02:23:06;;;;;;;3.05;0.98;;;;;;;;;;5037037;28;20099;-77
2023/08/17 02:25:35;;;;;;;1.88;0.80;;;;;;;;;;5036757;28;20473;-78
2023/08/17 02:28:04;;;;;;;1.55;0.80;;;;;;;;;;5037004;28;20017;-77
2023/08/17 02:30:30;;;;;;;2.40;1.10;;;;;;;;;;5036563;28;20033;-77
2023/08/17 02:32:56;;;;;;;2.45;0.80;;;;;;;;;;5037200;28;20026;-77
2023/08/17 02:35:22;;;;;;;2.38;1.35;;;;;;;;;;5036641;28;20026;-77
2023/08/17 02:37:48;;;;;;;1.67;0.95;;;;;;;;;;5035851;28;20065;-76
2023/08/17 02:40:14;;;;;;;2.13;0.95;;;;;;;;;;5036494;28;20041;-76
2023/08/17 02:42:40;;;;;;;2.03;1.20;;;;;;;;;;5036954;28;20041;-75
2023/08/17 02:45:07;;;;;;;1.40;0.90;;;;;;;;;;5036388;28;20029;-76
2023/08/17 02:47:33;;;;;;;2.70;1.00;;;;;;;;;;5037389;28;20026;-77
2023/08/17 02:49:59;;;;;;;1.75;1.00;;;;;;;;;;5037785;28;20037;-78
2023/08/17 02:52:25;;;;;;;2.35;1.00;;;;;;;;;;5037658;28;20087;-77
2023/08/17 02:54:51;;;;;;;1.40;1.00;;;;;;;;;;5040317;28;20033;-77
2023/08/17 02:57:18;;;;;;;1.20;0.80;;;;;;;;;;5039150;28;20552;-80
2023/08/17 02:59:44;;;;;;;1.25;0.85;;;;;;;;;;5040150;28;20033;-80
2023/08/17 03:02:10;;;;;;;1.77;1.00;;;;;;;;;;5047217;28;20389;-80
2023/08/17 03:04:36;;;;;;;1.35;0.93;;;;;;;;;;5038831;28;20033;-79
2023/08/17 03:07:02;;;;;;;1.90;0.98;;;;;;;;;;5039141;28;20029;-79
2023/08/17 03:09:28;;;;;;;1.60;1.00;;;;;;;;;;5040391;28;20025;-79
2023/08/17 03:11:54;;;;;;;1.00;0.90;;;;;;;;;;5039018;28;20032;-78
2023/08/17 03:14:20;;;;;;;2.75;0.90;;;;;;;;;;5038854;28;20124;-77
2023/08/17 03:16:46;;;;;;;1.95;0.90;;;;;;;;;;5038876;28;20025;-78
2023/08/17 03:19:12;;;;;;;2.35;0.93;;;;;;;;;;5040203;28;20030;-77
2023/08/17 03:21:39;;;;;;;3.20;1.10;;;;;;;;;;5038963;28;20026;-77
2023/08/17 03:24:05;;;;;;;2.10;1.10;;;;;;;;;;5039766;28;20517;-77
2023/08/17 03:26:31;;;;;;;2.15;1.00;;;;;;;;;;5038523;28;20041;-77
2023/08/17 03:28:57;;;;;;;1.55;0.82;;;;;;;;;;5038534;28;20447;-77
2023/08/17 03:31:23;;;;;;;2.22;1.00;;;;;;;;;;5039906;28;20363;-77
2023/08/17 03:33:49;;;;;;;1.20;0.88;;;;;;;;;;5039654;28;20030;-77
2023/08/17 03:36:15;;;;;;;2.97;1.00;;;;;;;;;;5039839;28;20095;-77
2023/08/17 03:38:41;;;;;;;2.40;0.90;;;;;;;;;;5039590;28;20025;-77
2023/08/17 03:41:07;;;;;;;2.15;1.00;;;;;;;;;;5039634;28;20397;-77
2023/08/17 03:43:34;;;;;;;2.28;1.00;;;;;;;;;;5039461;28;20030;-77
2023/08/17 03:46:00;;;;;;;1.48;0.98;;;;;;;;;;5038328;28;20075;-77
2023/08/17 03:48:26;;;;;;;1.88;0.90;;;;;;;;;;5041259;28;20440;-77
2023/08/17 03:50:55;;;;;;;1.95;0.90;;;;;;;;;;5038206;28;20021;-77
2023/08/17 03:53:21;;;;;;;3.67;1.00;;;;;;;;;;5046086;28;20501;-77
2023/08/17 03:55:47;;;;;;;1.50;0.93;;;;;;;;;;5058964;28;20021;-77
2023/08/17 03:58:13;;;;;;;1.63;0.90;;;;;;;;;;5059327;28;20426;-77
2023/08/17 04:00:40;;;;;;;1.50;0.98;;;;;;;;;;5060978;28;20016;-77
2023/08/17 04:03:06;;;;;;;2.28;0.80;;;;;;;;;;5037519;28;20068;-77
2023/08/17 04:05:32;;;;;;;2.15;0.95;;;;;;;;;;5039335;28;20075;-78
2023/08/17 04:08:02;;;;;;;2.50;1.00;;;;;;;;;;5038069;28;20116;-77
2023/08/17 04:10:28;;;;;;;2.20;0.90;;;;;;;;;;5037788;28;20021;-77
2023/08/17 04:12:54;;;;;;;2.00;1.00;;;;;;;;;;5037746;28;20025;-77
2023/08/17 04:15:20;;;;;;;2.22;0.93;;;;;;;;;;5037758;28;20048;-76
2023/08/17 04:17:46;;;;;;;2.35;1.20;;;;;;;;;;5038950;28;20030;-76
2023/08/17 04:20:12;;;;;;;2.10;0.90;;;;;;;;;;5038913;28;20036;-76
2023/08/17 04:22:38;;;;;;;2.70;0.95;;;;;;;;;;5039008;28;20390;-76
2023/08/17 04:25:04;;;;;;;2.58;0.95;;;;;;;;;;5038621;28;20029;-76
2023/08/17 04:27:30;;;;;;;1.60;1.10;;;;;;;;;;5038986;28;20022;-77
2023/08/17 04:29:56;;;;;;;1.42;0.95;;;;;;;;;;5038430;28;20029;-77
2023/08/17 04:32:22;;;;;;;1.17;1.00;;;;;;;;;;5038766;28;20028;-77
2023/08/17 04:34:48;;;;;;;0.98;0.75;;;;;;;;;;5037310;28;20085;-76
2023/08/17 04:37:14;;;;;;;1.63;0.90;;;;;;;;;;5038923;28;20034;-76
2023/08/17 04:39:43;;;;;;;2.55;1.02;;;;;;;;;;5038519;28;20026;-77
2023/08/17 04:42:09;;;;;;;2.05;1.20;;;;;;;;;;5038631;28;20108;-76
2023/08/17 04:44:35;;;;;;;1.67;0.98;;;;;;;;;;5037049;28;20025;-77
2023/08/17 04:47:01;;;;;;;1.73;0.90;;;;;;;;;;5037381;28;20385;-76
2023/08/17 04:49:27;;;;;;;1.63;0.90;;;;;;;;;;5038837;28;20021;-76
2023/08/17 04:51:53;;;;;;;2.55;1.27;;;;;;;;;;5036910;28;20112;-77
2023/08/17 04:54:19;;;;;;;1.77;1.10;;;;;;;;;;5036943;28;20025;-76
2023/08/17 04:56:45;;;;;;;1.25;1.08;;;;;;;;;;5037160;28;20029;-76
2023/08/17 04:59:11;;;;;;;2.00;0.80;;;;;;;;;;5038201;28;20029;-76
2023/08/17 05:01:38;;;;;;;1.77;0.93;;;;;;;;;;5042723;28;20036;-78
2023/08/17 05:04:04;;;;;;;1.33;1.20;;;;;;;;;;5042803;28;20017;-77
2023/08/17 05:06:31;;;;;;;1.95;1.08;;;;;;;;;;5050123;28;20079;-78
2023/08/17 05:08:57;;;;;;;2.13;1.15;;;;;;;;;;5037541;28;20371;-78
2023/08/17 05:11:23;;;;;;;1.75;1.20;;;;;;;;;;5037569;28;20029;-75
2023/08/17 05:13:49;;;;;;;3.10;1.25;;;;;;;;;;5038049;28;20678;-75
2023/08/17 05:16:15;;;;;;;1.73;0.95;;;;;;;;;;5036813;28;20053;-77
2023/08/17 05:18:41;;;;;;;1.17;0.85;;;;;;;;;;5036501;28;20074;-76
2023/08/17 05:21:07;;;;;;;1.80;1.10;;;;;;;;;;5037752;28;20025;-77
2023/08/17 05:23:33;;;;;;;1.77;0.90;;;;;;;;;;5036058;28;20482;-77
2023/08/17 05:26:00;;;;;;;1.88;1.20;;;;;;;;;;5036374;28;20017;-78
2023/08/17 05:28:26;;;;;;;1.38;0.95;;;;;;;;;;5037525;28;20048;-78
2023/08/17 05:30:53;;;;;;;1.90;1.02;;;;;;;;;;5036221;28;20496;-78
2023/08/17 05:33:19;;;;;;;1.13;0.80;;;;;;;;;;5037390;28;20049;-76
2023/08/17 05:35:45;;;;;;;2.70;1.00;;;;;;;;;;5037360;28;20030;-76
2023/08/17 05:38:11;;;;;;;1.20;1.05;;;;;;;;;;5036209;28;20036;-76
2023/08/17 05:40:37;;;;;;;1.48;0.80;;;;;;;;;;5036227;28;20021;-76
2023/08/17 05:43:03;;;;;;;2.13;1.00;;;;;;;;;;5037024;28;20060;-76
2023/08/17 05:45:29;;;;;;;2.97;0.98;;;;;;;;;;5038467;28;20028;-79
2023/08/17 05:47:55;;;;;;;1.10;1.00;;;;;;;;;;5043700;28;20381;-79
2023/08/17 05:50:21;;;;;;;1.75;0.82;;;;;;;;;;5048091;28;20394;-79
2023/08/17 05:52:47;;;;;;;1.60;1.00;;;;;;;;;;5041275;28;20115;-79
2023/08/17 05:55:13;;;;;;;1.70;0.98;;;;;;;;;;5043836;28;20079;-76
2023/08/17 05:57:39;;;;;;;2.05;1.23;;;;;;;;;;5048405;28;20033;-76
2023/08/17 06:00:05;;;;;;;3.00;1.10;;;;;;;;;;5036932;28;20079;-76
2023/08/17 06:02:31;;;;;;;2.90;1.30;;;;;;;;;;5040792;28;20409;-76
2023/08/17 06:04:57;;;;;;;1.60;1.00;;;;;;;;;;5036937;28;20025;-76
2023/08/17 06:07:23;;;;;;;2.30;1.00;;;;;;;;;;5036800;28;20037;-75
2023/08/17 06:09:50;;;;;;;2.97;1.08;;;;;;;;;;5035606;28;20052;-75
2023/08/17 06:12:17;;;;;;;1.70;1.00;;;;;;;;;;5036971;28;20025;-75
2023/08/17 06:14:43;;;;;;;2.58;1.10;;;;;;;;;;5036702;28;20026;-75
2023/08/17 06:17:09;;;;;;;1.65;1.15;;;;;;;;;;5035889;28;20036;-75
2023/08/17 06:19:35;;;;;;;1.75;1.10;;;;;;;;;;5036635;28;20026;-74
2023/08/17 06:22:01;;;;;;;2.97;1.02;;;;;;;;;;5036778;28;20037;-75
2023/08/17 06:24:27;;;;;;;1.50;0.80;;;;;;;;;;5035237;28;20029;-74
2023/08/17 06:26:54;;;;;;;1.65;0.98;;;;;;;;;;5038469;28;20525;-74
2023/08/17 06:29:20;;;;;;;1.40;0.90;;;;;;;;;;5041057;28;20025;-74
2023/08/17 06:31:46;;;;;;;2.00;1.00;;;;;;;;;;5039284;28;20017;-74
2023/08/17 06:34:12;;;;;;;1.70;1.25;;;;;;;;;;5039942;28;20132;-74
2023/08/17 06:36:39;;;;;;;1.65;1.20;;;;;;;;;;5040479;28;20029;-74
2023/08/17 06:39:05;;;;;;;2.00;1.33;;;;;;;;;;5040451;28;20045;-76
2023/08/17 06:41:31;;;;;;;2.97;1.10;;;;;;;;;;5040150;28;20022;-76
2023/08/17 06:43:57;;;;;;;1.60;1.10;;;;;;;;;;5040406;28;20647;-77
2023/08/17 06:46:24;;;;;;;3.05;1.15;;;;;;;;;;5040518;28;20478;-74
2023/08/17 06:48:50;;;;;;;2.13;1.20;;;;;;;;;;5042094;28;20109;-74
2023/08/17 06:51:16;;;;;;;3.63;1.30;;;;;;;;;;5040297;28;20072;-74
2023/08/17 06:53:42;;;;;;;3.40;1.27;;;;;;;;;;5040034;28;20078;-75
2023/08/17 06:56:09;;;;;;;3.42;1.15;;;;;;;;;;5040209;28;20040;-74
2023/08/17 06:58:35;;;;;;;2.25;1.15;;;;;;;;;;5040154;28;20393;-75
2023/08/17 07:01:01;;;;;;;2.17;1.13;;;;;;;;;;5044273;28;20096;-75
2023/08/17 07:03:27;;;;;;;1.75;1.02;;;;;;;;;;5037578;28;20105;-75
2023/08/17 07:05:53;;;;;;;1.60;1.02;;;;;;;;;;5038567;28;20027;-75
2023/08/17 07:08:19;;;;;;;2.22;1.20;;;;;;;;;;5039015;28;20021;-72
2023/08/17 07:10:45;;;;;;;2.28;1.33;;;;;;;;;;5040157;28;20086;-73
2023/08/17 07:13:11;;;;;;;2.10;1.35;;;;;;;;;;5040019;28;20025;-72
2023/08/17 07:15:37;;;;;;;3.85;0.93;;;;;;;;;;5039869;28;20037;-73
2023/08/17 07:18:03;;;;;;;1.70;1.30;;;;;;;;;;5040130;28;20021;-71
2023/08/17 07:20:30;;;;;;;1.92;1.38;;;;;;;;;;5039523;28;20576;-73
2023/08/17 07:22:56;;;;;;;3.03;1.50;;;;;;;;;;5038752;28;20026;-71
2023/08/17 07:25:22;;;;;;;1.95;1.10;;;;;;;;;;5038803;28;20057;-71
2023/08/17 07:27:48;;;;;;;1.50;0.98;;;;;;;;;;5039969;28;20022;-71
2023/08/17 07:30:14;;;;;;;2.47;1.60;;;;;;;;;;5039637;28;20109;-71
2023/08/17 07:32:40;;;;;;;1.88;1.10;;;;;;;;;;5040051;28;20071;-71
2023/08/17 07:35:06;;;;;;;1.60;1.20;;;;;;;;;;5038427;28;20033;-71
2023/08/17 07:37:33;;;;;;;1.80;1.40;;;;;;;;;;5039095;28;20104;-73
2023/08/17 07:39:59;;;;;;;2.35;1.33;;;;;;;;;;5039113;28;20033;-71
2023/08/17 07:42:25;;;;;;;1.30;1.10;;;;;;;;;;5039393;28;20052;-71
2023/08/17 07:44:51;;;;;;;2.50;1.35;;;;;;;;;;5037621;28;20112;-71
2023/08/17 07:47:17;;;;;;;2.67;1.60;;;;;;;;;;5037908;28;20048;-71
2023/08/17 07:49:43;;;;;;;2.60;1.75;;;;;;;;;;5041088;28;20036;-71
2023/08/17 07:52:09;;;;;;;1.80;1.58;;;;;;;;;;5039304;28;20033;-72
2023/08/17 07:54:36;;;;;;;4.28;1.90;;;;;;;;;;5038047;28;20037;-71
2023/08/17 07:57:03;;;;;;;2.53;1.63;;;;;;;;;;5039474;28;20139;-72
2023/08/17 07:59:29;;;;;;;2.63;1.80;;;;;;;;;;5037712;28;20084;-71
2023/08/17 08:01:55;;;;;;;1.92;1.73;;;;;;;;;;5043662;28;20032;-71
2023/08/17 08:04:21;;;;;;;2.42;1.75;;;;;;;;;;5039119;28;20029;-71
2023/08/17 08:06:47;;;;;;;4.47;1.90;;;;;;;;;;5039243;28;20500;-71
2023/08/17 08:09:13;;;;;;;2.70;1.67;;;;;;;;;;5039176;28;20022;-71
2023/08/17 08:11:39;;;;;;;3.88;1.95;;;;;;;;;;5039079;28;20045;-72
2023/08/17 08:14:05;;;;;;;3.85;1.70;;;;;;;;;;5039185;28;20481;-71
2023/08/17 08:16:31;;;;;;;2.40;2.05;;;;;;;;;;5038775;28;20026;-72
2023/08/17 08:18:58;;;;;;;3.95;2.13;;;;;;;;;;5038954;28;20030;-71
2023/08/17 08:21:23;;;;;;;2.85;1.88;;;22.90;99.90;;;;;;5039097;28;20513;-71
2023/08/17 08:23:49;;;;;;;2.97;1.85;;;23.00;99.90;;;;;;5037478;28;20033;-71
2023/08/17 08:26:15;;;;;;;2.72;2.08;;;22.90;99.90;;;;;;5037150;28;20022;-72
2023/08/17 08:28:40;;;;;;;2.72;1.90;;;23.00;99.90;;;;;;5038821;28;20048;-71
2023/08/17 08:31:06;;;;;;;2.50;2.03;;;23.00;99.90;;;;;;5038674;28;20552;-72
2023/08/17 08:33:32;;;;;;;3.70;1.92;;;23.00;99.90;;;;;;5038304;28;20026;-71
2023/08/17 08:35:58;;;;;;;2.85;1.95;;;23.00;99.90;;;;;;5038749;28;20022;-72
2023/08/17 08:38:24;;;;;;;2.97;1.90;;;23.10;99.90;;;;;;5038667;28;20394;-72
2023/08/17 08:40:50;;;;;;;2.95;2.03;;;23.00;99.90;;;;;;5038621;28;20117;-72
2023/08/17 08:43:16;;;;;;;3.60;2.00;;;23.10;99.90;;;;;;5038808;28;20025;-71
2023/08/17 08:45:44;;;;;;;2.80;2.10;;;23.10;99.90;;;;;;5038282;28;20598;-72
2023/08/17 08:48:11;;;;;;;2.83;2.00;;;23.10;99.90;;;;;;5040494;28;20025;-71
2023/08/17 08:50:40;;;;;;;2.83;2.00;;;23.20;99.90;;;;;;5038177;28;20101;-71
2023/08/17 08:53:13;;;;;;;3.35;2.10;;;23.20;99.90;;;;;;5037916;28;20041;-71
2023/08/17 08:55:47;;;;;;;3.97;1.90;;;23.30;99.90;;;;;;5036922;28;20452;-71
2023/08/17 08:58:15;;;;;;;3.00;1.80;;;23.20;99.90;;;;;;5036959;28;20033;-72
2023/08/17 09:00:41;;;;;;;3.20;2.28;;;23.30;99.90;;;;;;5043868;28;20474;-71
2023/08/17 09:03:08;;;;;;;2.63;2.00;;;23.30;99.90;;;;;;5038239;28;20029;-71
2023/08/17 09:05:35;;;;;;;2.58;1.90;;;23.30;99.90;;;;;;5038086;28;20113;-71
2023/08/17 09:08:02;;;;;;;2.13;1.83;;;23.40;99.90;;;;;;5038110;28;20071;-71
2023/08/17 09:10:28;;;;;;;1.90;1.70;;;23.50;99.90;;;;;;5037696;28;20014;-71
2023/08/17 09:12:54;;;;;;;2.53;2.20;;;23.40;99.90;;;;;;5038121;28;20108;-71
2023/08/17 09:15:19;;;;;;;5.28;2.20;;;23.50;99.90;;;;;;5037900;28;20497;-72
2023/08/17 09:17:47;;;;;;;3.38;1.90;;;23.60;99.90;;;;;;5036625;28;20109;-72
2023/08/17 09:20:46;;;;;;;3.90;2.05;;;23.60;99.90;;;;;;5037974;28;20409;-71
2023/08/17 09:23:19;;;;;;;2.65;1.90;;;23.70;99.90;;;;;;5037812;28;20064;-71
2023/08/17 09:25:46;;;;;;;3.83;2.20;;;23.60;99.90;;;;;;5037542;28;20025;-72
2023/08/17 09:28:16;;;;;;;2.80;2.22;;;23.60;99.90;;;;;;5037867;28;20029;-72
2023/08/17 09:30:54;;;;;;;2.88;1.95;;;23.80;99.90;;;;;;5037311;28;20079;-71
2023/08/17 09:33:22;;;;;;;3.28;2.33;;;23.80;99.90;;;;;;5037589;28;20077;-71
2023/08/17 09:35:48;;;;;;;4.15;2.67;;;23.90;99.90;;;;;;5037714;28;20531;-72
2023/08/17 09:38:14;;;;;;;4.18;2.15;;;24.00;99.90;;;;;;5037448;28;20083;-71
2023/08/17 09:40:40;;;;;;;3.42;2.10;;;24.10;99.90;;;;;;5037604;28;20021;-72
2023/08/17 09:43:06;;;;;;;3.05;2.30;;;24.20;99.90;;;;;;5037406;28;20040;-72
2023/08/17 09:45:31;;;;;;;4.43;2.50;;;24.40;99.90;;;;;;5037330;28;20030;-72
2023/08/17 09:48:00;;;;;;;3.75;2.38;;;24.50;99.90;;;;;;5038995;28;20021;-72
2023/08/17 09:50:26;;;;;;;2.67;1.80;;;24.60;99.90;;;;;;5037454;28;20402;-72
2023/08/17 09:52:55;;;;;;;2.45;2.00;;;24.70;99.90;;;;;;5035931;28;20107;-72
2023/08/17 09:55:23;;;;;;;3.90;2.33;;;24.80;99.90;;;;;;5037355;28;20033;-72
2023/08/17 09:57:52;;;;;;;2.60;2.10;;;24.90;99.90;;;;;;5037244;28;20021;-72
2023/08/17 10:00:21;;;;;;;4.55;2.20;;;25.00;99.90;;;;;;5037170;28;20057;-72
2023/08/17 10:02:51;;;;;;;3.05;2.22;;;25.10;99.90;;;;;;5036828;28;20478;-72
2023/08/17 10:05:19;;;;;;;4.03;2.40;;;25.20;99.90;;;;;;5037260;28;20030;-72
2023/08/17 10:07:50;;;;;;;3.38;2.50;;;25.20;99.90;;;;;;5036578;28;20025;-74
2023/08/17 10:10:22;;;;;;;3.58;2.42;;;25.30;99.90;;;;;;5037098;28;20031;-69
2023/08/17 10:13:28;;;;;;;3.65;2.50;;;25.20;99.90;;;;;;5044304;28;20017;-69
2023/08/17 10:15:59;;;;;;;3.60;2.30;;;25.30;99.90;;;;;;5054898;28;20040;-69
2023/08/17 10:18:54;;;;;;;3.75;2.50;;;25.30;99.90;;;;;;5057108;28;20017;-69
2023/08/17 10:21:36;;;;;;;3.15;2.15;;;25.40;99.90;;;;;;5055802;28;20089;-69
2023/08/17 10:24:03;;;;;;;3.30;2.25;;;25.60;99.90;;;;;;5056825;28;20032;-73
2023/08/17 10:26:29;;;;;;;4.50;2.40;;;25.70;99.90;;;;;;5056984;28;20029;-75
2023/08/17 10:28:58;;;;;;;4.30;2.33;;;25.70;99.90;;;;;;5056863;28;20110;-74
2023/08/17 10:31:25;;;;;;;3.00;2.03;;;25.70;99.90;;;;;;5056616;28;20025;-74
2023/08/17 10:33:51;;;;;;;3.30;2.35;;;25.70;99.90;;;;;;5057057;28;20490;-75
2023/08/17 10:36:18;;;;;;;3.50;2.20;;;25.80;99.90;;;;;;5056992;28;20052;-75
2023/08/17 10:38:43;;;;;;;3.67;2.17;;;25.90;99.90;;;;;;5049009;28;20547;-74
2023/08/17 10:41:14;;;;;;;3.67;2.40;;;26.00;99.90;;;;;;5035592;28;20053;-74
2023/08/17 10:43:59;;;;;;;3.25;2.20;;;26.10;99.90;;;;;;5044158;28;20029;-74
2023/08/17 10:46:35;;;;;;;5.15;2.38;;;26.10;99.90;;;;;;5056557;28;20031;-70
2023/08/17 10:49:06;;;;;;;2.72;2.28;;;26.10;99.90;;;;;;5045339;28;20390;-70
2023/08/17 10:51:32;;;;;;;4.30;2.47;;;26.10;99.90;;;;;;5036852;28;20025;-73
2023/08/17 10:54:04;;;;;;;2.95;2.08;;;26.20;99.90;;;;;;5036478;28;20042;-72
2023/08/17 10:56:30;;;;;;;2.30;1.97;;;26.30;99.90;;;;;;5036438;28;20477;-72
2023/08/17 10:59:01;;;;;;;3.80;2.47;;;26.40;99.90;;;;;;5035536;28;20127;-72
2023/08/17 11:01:39;;;;;;;3.33;2.30;;;26.50;99.90;;;;;;5041763;28;20021;-74
2023/08/17 11:04:16;;;;;;;2.88;2.38;;;26.70;99.90;;;;;;5036751;28;20470;-74
2023/08/17 11:06:43;;;;;;;3.28;1.88;;;26.80;99.90;;;;;;5035430;28;20512;-73
2023/08/17 11:09:09;;;;;;;2.70;2.00;;;26.80;99.90;;;;;;5035563;28;20033;-73
2023/08/17 11:11:35;;;;;;;2.78;2.30;;;26.80;99.90;;;;;;5035379;28;20056;-72
2023/08/17 11:14:00;;;;;;;3.50;2.20;;;27.00;99.90;;;;;;5037108;28;20036;-71
2023/08/17 11:16:26;;;;;;;2.58;1.85;;;27.10;99.90;;;;;;5040095;28;20022;-72
2023/08/17 11:18:52;;;;;;;2.55;2.17;;;27.20;99.90;;;;;;5040223;28;20033;-72
2023/08/17 11:21:18;;;;;;;3.17;1.70;;;27.40;99.90;;;;;;5040197;28;20029;-72
2023/08/17 11:23:44;;;;;;;2.25;2.00;;;27.40;99.90;;;;;;5038662;28;20056;-72
2023/08/17 11:26:10;;;;;;;3.50;2.05;;;27.50;99.70;;;;;;5040068;28;20029;-71
2023/08/17 11:28:37;;;;;;;3.45;2.30;;;27.50;99.10;;;;;;5039933;28;20104;-72
2023/08/17 11:31:05;;;;;;;2.35;2.05;;;27.50;98.70;;;;;;5039749;28;20018;-72
2023/08/17 11:33:31;;;;;;;3.17;2.08;;;27.60;99.00;;;;;;5039889;28;20025;-73
2023/08/17 11:35:57;;;;;;;2.85;2.13;;;27.70;98.30;;;;;;5040010;28;20116;-72
2023/08/17 11:38:23;;;;;;;2.33;2.00;;;27.80;98.60;;;;;;5039749;28;20025;-71
2023/08/17 11:40:50;;;;;;;2.70;1.90;;;27.60;98.20;;;;;;5039733;28;20013;-71
2023/08/17 11:43:16;;;;;;;4.30;1.70;;;27.50;97.30;;;;;;5038851;28;20410;-71
2023/08/17 11:45:42;;;;;;;2.85;2.03;;;27.30;97.30;;;;;;5036408;28;20057;-71
2023/08/17 11:48:07;;;;;;;2.53;1.85;;;27.20;98.20;;;;;;5039289;28;20071;-71
2023/08/17 11:50:33;;;;;;;2.80;2.17;;;27.30;99.70;;;;;;5039647;28;20072;-71
2023/08/17 11:53:03;;;;;;;3.33;1.92;;;27.40;98.40;;;;;;5039318;28;20052;-71
2023/08/17 11:55:28;;;;;;;2.08;1.67;;;27.40;98.00;;;;;;5039182;28;20053;-71
2023/08/17 11:57:54;;;;;;;2.15;1.80;;;27.40;97.30;;;;;;5039403;28;20026;-71
2023/08/17 12:00:21;;;;;;;2.67;1.75;;;27.30;97.50;;;;;;5039476;28;20025;-71
2023/08/17 12:02:48;;;;;;;1.98;1.77;;;27.20;98.10;;;;;;5042984;28;20462;-71
2023/08/17 12:05:23;;;;;;;2.65;1.77;;;27.40;99.00;;;;;;5039432;28;20474;-71
2023/08/17 12:07:50;;;;;;;2.38;1.77;;;27.60;99.60;;;;;;5039122;28;20021;-71
2023/08/17 12:10:17;;;;;;;2.00;1.80;;;27.70;98.00;;;;;;5039208;28;20017;-72
2023/08/17 12:12:43;;;;;;;1.98;1.70;;;27.90;97.60;;;;;;5038694;28;20068;-71
2023/08/17 12:15:11;;;;;;;2.75;1.92;;;28.10;97.40;;;;;;5038977;28;20030;-71
2023/08/17 12:17:45;;;;;;;2.80;1.88;;;28.30;96.90;;;;;;5039187;28;20029;-71
2023/08/17 12:20:18;;;;;;;2.30;1.40;;;28.30;97.60;;;;;;5037720;28;20028;-71
2023/08/17 12:22:44;;;;;;;2.13;1.60;;;28.30;96.50;;;;;;5037645;28;20033;-71
2023/08/17 12:25:10;;;;;;;1.85;1.67;;;28.20;95.10;;;;;;5037054;28;20108;-71
2023/08/17 12:27:36;;;;;;;1.85;1.50;;;28.00;95.50;;;;;;5038962;28;20101;-71
2023/08/17 12:30:02;;;;;;;2.22;2.03;;;28.00;95.90;;;;;;5038662;28;20497;-71
2023/08/17 12:32:28;;;;;;;3.25;2.00;;;28.00;95.50;;;;;;5038700;28;20030;-71
2023/08/17 12:34:53;;;;;;;3.13;1.80;;;28.20;95.70;;;;;;5038874;28;20377;-71
2023/08/17 12:37:20;;;;;;;1.90;1.60;;;28.40;94.10;;;;;;5038783;28;20036;-71
2023/08/17 12:39:47;;;;;;;3.58;1.70;;;28.40;94.30;;;;;;5038702;28;20021;-71
2023/08/17 12:42:13;;;;;;;2.47;1.77;;;28.60;94.10;;;;;;5038733;28;20037;-71
2023/08/17 12:44:39;;;;;;;2.45;1.60;;;28.80;93.80;;;;;;5038233;28;20100;-71
2023/08/17 12:47:05;;;;;;;1.73;1.50;;;28.80;93.20;;;;;;5038362;28;20104;-71
2023/08/17 12:49:30;;;;;;;1.65;1.45;;;28.70;93.50;;;;;;5039676;28;20028;-71
2023/08/17 12:51:56;;;;;;;2.50;2.00;;;28.50;92.80;;;;;;5038421;28;20026;-71
2023/08/17 12:54:22;;;;;;;2.92;1.60;;;28.30;92.60;;;;;;5038469;28;20032;-71
2023/08/17 12:56:48;;;;;;;2.42;1.80;;;28.20;92.90;;;;;;5037021;28;20089;-71
2023/08/17 12:59:13;;;;;;;2.53;1.73;;;28.00;93.50;;;;;;5037947;28;20076;-71
2023/08/17 13:01:39;;;;;;;2.35;1.70;;;28.00;93.60;;;;;;5043107;28;20038;-71
2023/08/17 13:04:05;;;;;;;2.20;1.60;;;28.10;92.60;;;;;;5038395;28;20028;-71
2023/08/17 13:06:31;;;;;;;4.15;1.67;;;28.10;93.00;;;;;;5036955;28;20033;-71
2023/08/17 13:08:57;;;;;;;4.45;1.80;;;28.10;92.60;;;;;;5038116;28;20100;-71
2023/08/17 13:11:22;;;;;;;2.55;1.95;;;28.10;91.80;;;;;;5038178;28;20056;-71
2023/08/17 13:13:48;;;;;;;2.47;1.90;;;28.10;92.10;;;;;;5038049;28;20025;-71
2023/08/17 13:16:14;;;;;;;1.60;1.50;;;28.10;93.00;;;;;;5036410;28;20025;-71
2023/08/17 13:18:39;;;;;;;1.77;1.50;;;28.30;93.20;;;;;;5036667;28;20027;-71
2023/08/17 13:21:05;;;;;;;3.13;1.70;;;28.60;93.70;;;;;;5037842;28;20087;-71
2023/08/17 13:23:30;;;;;;;2.08;1.60;;;28.80;92.90;;;;;;5037849;28;20021;-71
2023/08/17 13:25:56;;;;;;;2.63;1.58;;;28.90;92.60;;;;;;5037712;28;20029;-71
2023/08/17 13:28:22;;;;;;;2.50;1.98;;;29.00;92.80;;;;;;5037746;28;20026;-71
2023/08/17 13:30:47;;;;;;;2.97;1.60;;;29.00;90.70;;;;;;5037682;28;20447;-71
2023/08/17 13:33:13;;;;;;;2.78;1.83;;;29.10;92.10;;;;;;5037518;28;20486;-71
2023/08/17 13:35:39;;;;;;;2.53;1.80;;;29.10;91.40;;;;;;5037338;28;20026;-71
2023/08/17 13:38:05;;;;;;;2.33;1.60;;;29.10;90.20;;;;;;5037463;28;20509;-71
2023/08/17 13:40:31;;;;;;;2.63;1.75;;;29.20;88.90;;;;;;5037496;28;20501;-71
2023/08/17 13:42:58;;;;;;;3.30;1.98;;;29.30;90.10;;;;;;5037731;28;20108;-71
2023/08/17 13:45:24;;;;;;;2.40;1.70;;;29.30;88.50;;;;;;5037543;28;20032;-71
2023/08/17 13:47:49;;;;;;;2.45;1.58;;;29.20;88.20;;;;;;5038535;28;20456;-71
2023/08/17 13:50:15;;;;;;;2.70;1.75;;;29.20;89.60;;;;;;5037267;28;20034;-71
2023/08/17 13:52:41;;;;;;;2.28;1.90;;;29.20;88.30;;;;;;5035920;28;20152;-71